Latest Coastal Weather Observations for Devonport Airport

IDV60701

Issued at 3:41 pm EST Monday 27 April 2015 (issued every 10 minutes, with the page automatically refreshed every 10 minutes)

About coastal observations | Map of coastal stations | Coastal observations for VIC | Marine services | Other Formats
Station Details ID: 091126 Name: DEVONPORT AIRPORT Lat: -41.17 Lon: 146.43 Height: 8.0 m
Data from the previous 72 hours. | See also: Recent months at Devonport Airport
Date/Time
EST
Temp

°C
Wind Pressure Rain
since 9am
mm
Weather Cloud Vis
km
Sea
Height
m
Swell
Dir
 
Speed
knots
Gust
knots
hPa Trend Height
m
Period
s
Dir
27/03:30pm 15.2 N 7 9 1019.1 - 0.0 - - 10 - - - -
27/03:00pm 15.2 N 7 8 1019.1 - 0.0 - - 10 - - - -
27/02:30pm 15.1 N 6 8 1019.0 - 0.0 - - 10 - - - -
27/02:00pm 15.0 NNW 7 9 1018.9 - 0.0 - - 10 - - - -
27/01:30pm 15.0 NNW 7 10 1018.9 - 0.0 - - 10 - - - -
27/01:00pm 14.7 NW 8 10 1018.9 - 0.0 - - 10 - - - -
27/12:30pm 14.4 WNW 8 10 1019.0 - 0.0 - - 10 - - - -
27/12:00pm 14.2 NNW 7 9 1019.2 - 0.0 - - 10 - - - -
27/11:30am 14.3 NNW 7 9 1019.4 - 0.0 - - 10 - - - -
27/11:00am 14.1 NW 6 8 1019.4 - 0.0 - - 10 - - - -
27/10:30am 14.1 SW 7 11 1019.4 - 0.0 - - 10 - - - -
27/10:00am 13.2 WSW 7 9 1019.2 - 0.0 - - 10 - - - -
27/09:30am 12.3 WSW 7 10 1019.0 - 0.0 - - 10 - - - -
27/09:00am 11.0 WSW 4 7 1019.0 - 0.0 - - 10 - - - -
27/08:30am 8.2 S 4 5 1018.9 - 0.0 - - 10 - - - -
27/08:00am 5.7 SSE 5 6 1018.7 - 0.0 - - 10 - - - -
27/07:30am 4.9 S 4 5 1018.4 - 0.0 - - 10 - - - -
27/07:00am 4.8 S 5 5 1018.0 - 0.0 - - 10 - - - -
27/06:30am 5.6 S 3 5 1017.6 - 0.0 - - 10 - - - -
27/06:00am 7.3 WSW 6 7 1017.6 - 0.0 - - 10 - - - -
27/05:30am 6.9 WSW 7 8 1017.5 - 0.0 - - 10 - - - -
27/05:00am 6.8 WSW 7 9 1017.3 - 0.0 - - 10 - - - -
27/04:30am 7.8 WSW 6 7 1016.9 - 0.0 - - 10 - - - -
27/04:00am 6.9 WSW 6 7 1016.7 - 0.0 - - 10 - - - -
27/03:30am 6.8 WSW 9 11 1016.5 - 0.0 - - 10 - - - -
27/03:00am 7.2 WSW 9 10 1016.5 - 0.0 - Cloudy 10 - - - -
27/02:30am 7.0 WSW 8 10 1016.5 - 0.0 - - 10 - - - -
27/02:00am 6.9 W 8 9 1016.5 - 0.0 - - 10 - - - -
27/01:30am 6.8 W 9 10 1016.4 - 0.0 - - 10 - - - -
27/01:00am 7.1 WSW 9 12 1016.4 - 0.0 - - 10 - - - -
27/12:30am 7.8 WSW 8 9 1016.6 - 0.0 - - 10 - - - -
27/12:00am 8.1 W 8 9 1016.4 - 0.0 - - 10 - - - -
 
Date/Time
EST
Temp

°C
Wind Pressure Rain
since 9am
mm
Weather Cloud Vis
km
Sea
Height
m
Swell
Dir
 
Speed
knots
Gust
knots
hPa Trend Height
m
Period
s
Dir
26/11:30pm 9.2 WSW 7 10 1016.2 - 0.0 - - 10 - - - -
26/11:00pm 8.3 WSW 10 12 1016.0 - 0.0 - - 10 - - - -
26/10:30pm 9.1 W 9 11 1016.0 - 0.0 - - 10 - - - -
26/10:00pm 8.9 W 5 7 1015.8 - 0.0 - - 10 - - - -
26/09:30pm 8.2 WSW 11 13 1015.7 - 0.0 - - 10 - - - -
26/09:00pm 8.8 WSW 7 8 1015.7 - 0.0 - - 10 - - - -
26/08:30pm 9.1 WSW 11 13 1015.4 - 0.0 - - 10 - - - -
26/08:00pm 9.1 W 10 12 1015.1 - 0.0 - - 10 - - - -
26/07:30pm 9.5 WSW 10 11 1015.2 - 0.0 - - 10 - - - -
26/07:00pm 10.1 WSW 9 11 1015.1 - 0.0 - - 10 - - - -
26/06:30pm 10.6 WSW 10 12 1014.7 - 0.0 - - 10 - - - -
26/06:00pm 11.0 WSW 9 12 1014.3 - 0.0 - - 10 - - - -
26/05:30pm 11.9 WSW 10 12 1014.0 - 0.0 - - 10 - - - -
26/05:00pm 13.0 WSW 8 12 1013.7 - 0.0 - - 10 - - - -
26/04:30pm 14.3 WSW 16 20 1013.3 - 0.0 - - 10 - - - -
26/04:00pm 15.1 WSW 13 19 1013.0 - 0.0 - - 10 - - - -
26/03:30pm 14.9 WSW 16 21 1012.9 - 0.0 - - 10 - - - -
26/03:00pm 15.6 WSW 15 20 1012.7 - 0.0 - - 10 - - - -
26/02:30pm 16.1 WSW 15 19 1012.6 - 0.0 - Partly cloudy 10 - - - -
26/02:00pm 15.6 WSW 13 17 1012.7 - 0.0 - Partly cloudy 10 - - - -
26/01:30pm 15.6 WSW 16 20 1012.7 - 0.0 - Partly cloudy 10 - - - -
26/01:00pm 15.8 WSW 14 20 1012.8 - 0.0 - Partly cloudy 10 - - - -
26/12:30pm 15.7 SW 10 14 1013.2 - 0.0 - Partly cloudy 10 - - - -
26/12:00pm 14.3 SW 10 14 1013.5 - 0.0 - - 10 - - - -
26/11:30am 14.1 SW 11 21 1013.7 - 0.0 - - 10 - - - -
26/11:00am 13.5 SSW 9 15 1014.0 - 0.0 - - 10 - - - -
26/10:30am 13.0 SSW 10 15 1014.2 - 0.0 - - 10 - - - -
26/10:00am 12.4 SSW 10 14 1014.2 - 0.0 - - 10 - - - -
26/09:30am 11.9 SSW 7 10 1014.4 - 0.0 - - 10 - - - -
26/09:00am 10.8 SSW 6 8 1014.3 - 5.8 - - 10 - - - -
26/08:30am 9.1 S 6 6 1014.3 - 5.8 - Partly cloudy 10 - - - -
26/08:00am 9.7 SSW 4 7 1014.2 - 5.8 - Cloudy 10 - - - -
26/07:30am 9.7 SSW 5 7 1013.8 - 5.8 - Cloudy 10 - - - -
26/07:00am 9.9 SSW 6 8 1013.4 - 5.8 - Cloudy 10 - - - -
26/06:30am 10.3 SW 7 9 1013.0 - 5.8 - Partly cloudy 10 - - - -
26/06:00am 10.4 SSW 3 5 1012.7 - 5.8 - Cloudy 10 - - - -
26/05:30am 10.6 SW 4 5 1012.8 - 5.8 - Cloudy 10 - - - -
26/05:00am 10.7 S 7 8 1012.6 - 5.8 - Cloudy 10 - - - -
26/04:30am 10.9 S 7 9 1012.4 - 5.8 - Cloudy 10 - - - -
26/04:00am 11.1 SSE 6 7 1012.5 - 5.8 - Cloudy 10 - - - -
26/03:30am 10.6 S 3 4 1012.4 - 5.8 - Cloudy 10 - - - -
26/03:00am 10.6 S 4 6 1012.4 - 5.8 - Cloudy 10 - - - -
26/02:30am 11.1 S 6 9 1012.5 - 5.8 - Partly cloudy 10 - - - -
26/02:00am 11.0 S 6 7 1012.5 - 5.8 - Partly cloudy 10 - - - -
26/01:30am 11.2 S 7 8 1012.7 - 5.8 - Partly cloudy 10 - - - -
26/01:00am 11.3 S 6 8 1012.6 - 5.8 - Partly cloudy 10 - - - -
26/12:30am 11.5 S 7 9 1012.6 - 5.8 - Cloudy 10 - - - -
26/12:00am 11.7 SSE 4 6 1012.3 - 5.8 - Cloudy 10 - - - -
 
Date/Time
EST
Temp

°C
Wind Pressure Rain
since 9am
mm
Weather Cloud Vis
km
Sea
Height
m
Swell
Dir
 
Speed
knots
Gust
knots
hPa Trend Height
m
Period
s
Dir
25/11:30pm 11.8 SSE 5 7 1012.3 - 5.8 - Cloudy 10 - - - -
25/11:00pm 12.0 SSE 6 8 1012.1 - 5.8 - Cloudy 10 - - - -
25/10:30pm 12.2 SE 7 9 1012.2 - 5.8 - Cloudy 10 - - - -
25/10:00pm 12.5 SE 6 9 1012.2 - 5.8 - Cloudy 10 - - - -
25/09:30pm 12.1 ESE 6 7 1012.1 - 5.8 - Partly cloudy 10 - - - -
25/09:00pm 12.8 SE 7 9 1011.8 - 5.0 Rain Cloudy 10 - - - -
25/08:40pm 13.3 SE 7 9 1011.7 - 4.8 - Partly cloudy 10 - - - -
25/08:30pm 13.9 SSE 5 7 1011.5 - 4.4 - Partly cloudy 6 - - - -
25/08:17pm 14.4 SSE 4 10 1011.5 - 1.6 - Partly cloudy 6 - - - -
25/08:00pm 15.1 SW 5 7 1011.3 - 0.0 - Partly cloudy 10 - - - -
25/07:30pm 15.5 WNW 7 9 1011.2 - 0.0 - Partly cloudy 10 - - - -
25/07:00pm 15.5 WNW 7 8 1010.9 - 0.0 - Partly cloudy 10 - - - -
25/06:30pm 15.6 WNW 8 9 1010.7 - 0.0 - Cloudy 10 - - - -
25/06:00pm 15.5 W 7 9 1010.2 - 0.0 - Mostly cloudy 10 - - - -
25/05:30pm 15.7 WNW 7 9 1009.9 - 0.0 - Cloudy 10 - - - -
25/05:00pm 16.0 WNW 7 8 1009.4 - 0.0 - Cloudy 10 - - - -
25/04:30pm 16.2 NW 7 9 1009.3 - 0.0 - Partly cloudy 10 - - - -
25/04:00pm 16.1 NNW 7 9 1009.1 - 0.0 - Partly cloudy 10 - - - -
25/03:30pm 17.4 NW 9 10 1009.0 - 0.0 - Cloudy 10 - - - -
25/03:00pm 16.8 NW 8 10 1008.8 - 0.0 - Mostly cloudy 10 - - - -
25/02:30pm 17.0 NNW 9 10 1008.6 - 0.0 - Partly cloudy 10 - - - -
25/02:00pm 17.2 NNW 7 9 1008.4 - 0.0 - Cloudy 10 - - - -
25/01:30pm 18.3 ESE 4 7 1008.3 - 0.0 - Partly cloudy 10 - - - -
25/01:00pm 17.7 ESE 7 11 1008.3 - 0.0 - - 10 - - - -
25/12:30pm 17.7 SE 9 13 1008.5 - 0.0 - - 10 - - - -
25/12:00pm 17.3 SE 11 15 1008.5 - 0.0 - - 10 - - - -
25/11:30am 17.0 SE 13 17 1008.5 - 0.0 - - 10 - - - -
25/11:00am 16.1 SE 13 17 1008.6 - 0.0 - - 10 - - - -
25/10:30am 15.9 SSE 13 16 1008.5 - 0.0 - - 10 - - - -
25/10:00am 15.0 SSE 13 17 1008.5 - 0.0 - - 10 - - - -
25/09:30am 14.3 SSE 14 17 1008.3 - 0.0 - - 10 - - - -
25/09:00am 12.9 S 11 14 1008.2 - 10.8 - - 10 - - - -
25/08:30am 12.2 S 9 12 1008.1 - 10.8 - - 10 - - - -
25/08:00am 11.4 S 8 11 1007.9 - 10.8 - - 10 - - - -
25/07:30am 10.2 S 8 11 1007.6 - 10.8 - Partly cloudy 10 - - - -
25/07:00am 9.6 SSE 9 11 1007.0 - 10.8 - - 10 - - - -
25/06:30am 9.5 SSE 9 11 1006.6 - 10.8 - Partly cloudy 10 - - - -
25/06:23am 9.5 SSE 8 9 1006.5 - 10.8 - Partly cloudy 10 - - - -
25/06:08am 9.9 SSE 9 12 1006.3 - 10.6 - Partly cloudy 1 - - - -
25/06:01am 9.9 SSE 11 13 1006.1 - 10.6 - Partly cloudy 0.9 - - - -
25/06:00am 9.9 SSE 11 13 1006.1 - 10.6 - Partly cloudy 1 - - - -
25/05:59am 9.8 SSE 11 13 1006.1 - 10.6 - Partly cloudy 1 - - - -
25/05:50am 9.7 SSE 8 11 1005.9 - 10.6 - Partly cloudy 6 - - - -
25/05:30am 9.4 S 7 10 1005.8 - 10.6 - - 10 - - - -
25/05:09am 9.6 S 7 9 1005.6 - 10.6 - - 10 - - - -
25/05:00am 9.8 S 8 9 1005.5 - 10.6 - Partly cloudy 7 - - - -
25/04:30am 9.8 S 7 9 1005.2 - 10.6 - Partly cloudy 1 - - - -
25/04:24am 9.7 S 7 9 1005.1 - 10.6 - Partly cloudy 5 - - - -
25/04:00am 9.9 S 6 8 1005.0 - 10.6 - Partly cloudy 10 - - - -
25/03:30am 10.2 SSE 9 11 1005.0 - 10.6 - Partly cloudy 10 - - - -
25/03:00am 10.8 SSE 9 11 1004.7 - 10.6 - - 10 - - - -
25/02:30am 10.8 SSE 8 10 1004.6 - 10.6 - Partly cloudy 10 - - - -
25/02:00am 11.2 SSE 9 11 1004.5 - 10.6 - Partly cloudy 10 - - - -
25/01:30am 10.9 S 7 8 1004.5 - 10.6 - Partly cloudy 10 - - - -
25/01:00am 11.1 S 8 9 1004.5 - 10.6 - Partly cloudy 10 - - - -
25/12:30am 11.3 S 4 5 1004.5 - 10.6 - Partly cloudy 10 - - - -
25/12:04am 11.8 S 7 8 1004.4 - 10.6 - Partly cloudy 10 - - - -
25/12:00am 11.9 S 5 8 1004.4 - 10.6 Recent precip. Cloudy 9 - - - -
 
Date/Time
EST
Temp

°C
Wind Pressure Rain
since 9am
mm
Weather Cloud Vis
km
Sea
Height
m
Swell
Dir
 
Speed
knots
Gust
knots
hPa Trend Height
m
Period
s
Dir
24/11:30pm 12.2 S 5 7 1004.2 - 10.6 - Partly cloudy 10 - - - -
24/11:04pm 11.7 SSE 5 6 1004.1 - 10.4 - Partly cloudy 10 - - - -
24/11:01pm 11.5 SSE 5 6 1004.0 - 10.4 - Partly cloudy 10 - - - -
24/11:00pm 11.5 SSE 5 6 1004.0 - 10.4 - Partly cloudy 10 - - - -
24/10:30pm 12.0 SE 6 6 1004.0 - 10.4 - Cloudy 10 - - - -
24/10:02pm 12.0 S 1 5 1004.1 - 10.4 - Partly cloudy 10 - - - -
24/10:00pm 12.0 CALM 0 0 1004.1 - 10.4 - Partly cloudy 10 - - - -
24/09:30pm 12.4 CALM 0 0 1003.9 - 10.4 - Partly cloudy 8 - - - -
24/09:00pm 12.1 CALM 0 0 1003.8 - 10.4 Rain Cloudy 7 - - - -
24/08:30pm 12.5 WNW 3 5 1003.7 - 10.4 - Partly cloudy 10 - - - -
24/08:00pm 12.9 CALM 0 0 1003.1 - 10.4 - Cloudy 10 - - - -
24/07:30pm 12.8 S 3 5 1002.7 - 10.4 - Partly cloudy 10 - - - -
24/07:00pm 12.8 SSW 5 6 1002.4 - 10.4 - Partly cloudy 10 - - - -
24/06:30pm 12.9 S 7 8 1002.2 - 10.4 - Partly cloudy 10 - - - -
24/06:00pm 13.1 SSE 5 6 1002.4 - 10.2 Showers Mostly cloudy 10 - - - -
24/05:30pm 13.3 CALM 0 0 1002.5 - 10.2 - Cloudy 10 - - - -
24/05:09pm 13.4 CALM 0 1 1002.4 - 10.0 - Partly cloudy 10 - - - -
24/05:00pm 13.3 SW 2 4 1002.4 - 10.0 - Partly cloudy 7 - - - -
24/04:32pm 13.5 SW 4 5 1002.2 - 7.2 - Cloudy 6 - - - -
24/04:30pm 13.5 SW 4 5 1002.3 - 7.0 - Cloudy 7 - - - -
24/04:03pm 13.8 WSW 4 6 1002.2 - 5.4 - Partly cloudy 9 - - - -
24/04:00pm 13.8 WSW 5 6 1002.2 - 5.2 - Partly cloudy 10 - - - -
24/03:50pm 13.9 S 4 6 1002.3 - 4.6 - Partly cloudy 6 - - - -

Other Formats:

Comma delimited format used in spreadsheet applications
http://www.bom.gov.au/fwo/IDV60701/IDV60701.95960.axf

JavaScript Object Notation format (JSON) in row-major order
http://www.bom.gov.au/fwo/IDV60701/IDV60701.95960.json